sensor_id;sensor_type;location;lat;lon;timestamp;P1;durP1;ratioP1;P2;durP2;ratioP2
21647;SDS011;10985;54.182;7.890;2023-05-08T00:01:47;11.75;;;10.65;;
21647;SDS011;10985;54.182;7.890;2023-05-08T00:04:13;15.63;;;10.68;;
21647;SDS011;10985;54.182;7.890;2023-05-08T00:06:38;18.42;;;11.75;;
21647;SDS011;10985;54.182;7.890;2023-05-08T00:09:04;11.07;;;9.98;;
21647;SDS011;10985;54.182;7.890;2023-05-08T00:11:30;15.82;;;10.57;;
21647;SDS011;10985;54.182;7.890;2023-05-08T00:13:55;16.83;;;11.18;;
21647;SDS011;10985;54.182;7.890;2023-05-08T00:16:21;14.15;;;10.95;;
21647;SDS011;10985;54.182;7.890;2023-05-08T00:18:46;15.32;;;10.55;;
21647;SDS011;10985;54.182;7.890;2023-05-08T00:21:12;11.48;;;10.38;;
21647;SDS011;10985;54.182;7.890;2023-05-08T00:23:37;10.32;;;9.35;;
21647;SDS011;10985;54.182;7.890;2023-05-08T00:26:03;10.88;;;9.35;;
21647;SDS011;10985;54.182;7.890;2023-05-08T00:28:28;10.02;;;9.13;;
21647;SDS011;10985;54.182;7.890;2023-05-08T00:30:54;9.98;;;8.80;;
21647;SDS011;10985;54.182;7.890;2023-05-08T00:33:19;10.00;;;9.10;;
21647;SDS011;10985;54.182;7.890;2023-05-08T00:35:45;12.18;;;9.65;;
21647;SDS011;10985;54.182;7.890;2023-05-08T00:38:10;12.70;;;9.32;;
21647;SDS011;10985;54.182;7.890;2023-05-08T00:40:36;12.00;;;8.93;;
21647;SDS011;10985;54.182;7.890;2023-05-08T00:43:02;9.65;;;8.43;;
21647;SDS011;10985;54.182;7.890;2023-05-08T00:45:31;9.63;;;8.73;;
21647;SDS011;10985;54.182;7.890;2023-05-08T00:48:00;14.27;;;9.05;;
21647;SDS011;10985;54.182;7.890;2023-05-08T00:50:26;10.63;;;9.48;;
21647;SDS011;10985;54.182;7.890;2023-05-08T00:52:51;12.23;;;9.20;;
21647;SDS011;10985;54.182;7.890;2023-05-08T00:55:18;10.32;;;9.27;;
21647;SDS011;10985;54.182;7.890;2023-05-08T00:57:44;10.23;;;9.25;;
21647;SDS011;10985;54.182;7.890;2023-05-08T01:00:11;11.63;;;10.02;;
21647;SDS011;10985;54.182;7.890;2023-05-08T01:02:37;11.25;;;10.20;;
21647;SDS011;10985;54.182;7.890;2023-05-08T01:05:03;11.98;;;9.77;;
21647;SDS011;10985;54.182;7.890;2023-05-08T01:07:30;13.20;;;10.82;;
21647;SDS011;10985;54.182;7.890;2023-05-08T01:09:56;11.20;;;10.20;;
21647;SDS011;10985;54.182;7.890;2023-05-08T01:12:28;10.55;;;9.45;;
21647;SDS011;10985;54.182;7.890;2023-05-08T01:15:11;10.35;;;9.35;;
21647;SDS011;10985;54.182;7.890;2023-05-08T01:18:11;12.05;;;8.80;;
21647;SDS011;10985;54.182;7.890;2023-05-08T01:20:55;12.52;;;8.82;;
21647;SDS011;10985;54.182;7.890;2023-05-08T01:24:09;10.48;;;9.38;;
21647;SDS011;10985;54.182;7.890;2023-05-08T01:29:28;21.25;;;13.65;;
21647;SDS011;10985;54.182;7.890;2023-05-08T01:32:40;19.13;;;12.43;;
21647;SDS011;10985;54.182;7.890;2023-05-08T01:35:20;14.45;;;10.57;;
21647;SDS011;10985;54.182;7.890;2023-05-08T01:40:45;15.52;;;10.35;;
21647;SDS011;10985;54.182;7.890;2023-05-08T01:46:24;19.95;;;11.98;;
21647;SDS011;10985;54.182;7.890;2023-05-08T01:48:59;16.27;;;13.57;;
21647;SDS011;10985;54.182;7.890;2023-05-08T01:51:32;19.38;;;13.07;;
21647;SDS011;10985;54.182;7.890;2023-05-08T01:54:11;12.13;;;9.93;;
21647;SDS011;10985;54.182;7.890;2023-05-08T01:56:41;16.00;;;11.27;;
21647;SDS011;10985;54.182;7.890;2023-05-08T01:59:08;22.75;;;10.65;;
21647;SDS011;10985;54.182;7.890;2023-05-08T02:01:36;22.10;;;11.13;;
21647;SDS011;10985;54.182;7.890;2023-05-08T02:04:03;13.43;;;10.15;;
21647;SDS011;10985;54.182;7.890;2023-05-08T02:06:30;12.55;;;9.23;;
21647;SDS011;10985;54.182;7.890;2023-05-08T02:08:57;12.70;;;9.65;;
21647;SDS011;10985;54.182;7.890;2023-05-08T02:11:24;15.27;;;9.60;;
21647;SDS011;10985;54.182;7.890;2023-05-08T02:13:50;14.18;;;9.73;;
21647;SDS011;10985;54.182;7.890;2023-05-08T02:16:16;10.68;;;9.20;;
21647;SDS011;10985;54.182;7.890;2023-05-08T02:18:47;11.13;;;8.70;;
21647;SDS011;10985;54.182;7.890;2023-05-08T02:21:18;9.35;;;8.27;;
21647;SDS011;10985;54.182;7.890;2023-05-08T02:23:45;9.73;;;8.65;;
21647;SDS011;10985;54.182;7.890;2023-05-08T02:26:12;10.07;;;7.78;;
21647;SDS011;10985;54.182;7.890;2023-05-08T02:28:39;11.38;;;8.20;;
21647;SDS011;10985;54.182;7.890;2023-05-08T02:31:06;9.68;;;8.43;;
21647;SDS011;10985;54.182;7.890;2023-05-08T02:33:37;11.93;;;7.88;;
21647;SDS011;10985;54.182;7.890;2023-05-08T02:36:05;11.68;;;7.40;;
21647;SDS011;10985;54.182;7.890;2023-05-08T02:38:31;13.50;;;8.93;;
21647;SDS011;10985;54.182;7.890;2023-05-08T02:40:59;11.55;;;8.48;;
21647;SDS011;10985;54.182;7.890;2023-05-08T02:43:28;8.75;;;7.80;;
21647;SDS011;10985;54.182;7.890;2023-05-08T02:46:11;10.52;;;8.20;;
21647;SDS011;10985;54.182;7.890;2023-05-08T02:51:17;17.38;;;8.60;;
21647;SDS011;10985;54.182;7.890;2023-05-08T02:54:09;12.15;;;7.97;;
21647;SDS011;10985;54.182;7.890;2023-05-08T02:59:45;10.43;;;8.05;;
21647;SDS011;10985;54.182;7.890;2023-05-08T03:04:55;15.10;;;8.85;;
21647;SDS011;10985;54.182;7.890;2023-05-08T03:07:27;11.20;;;8.18;;
21647;SDS011;10985;54.182;7.890;2023-05-08T03:09:56;11.65;;;8.80;;
21647;SDS011;10985;54.182;7.890;2023-05-08T03:12:26;12.10;;;8.48;;
21647;SDS011;10985;54.182;7.890;2023-05-08T03:15:07;11.98;;;8.75;;
21647;SDS011;10985;54.182;7.890;2023-05-08T03:17:42;12.25;;;9.35;;
21647;SDS011;10985;54.182;7.890;2023-05-08T03:20:12;13.93;;;8.68;;
21647;SDS011;10985;54.182;7.890;2023-05-08T03:22:40;11.88;;;8.85;;
21647;SDS011;10985;54.182;7.890;2023-05-08T03:25:07;14.00;;;9.05;;
21647;SDS011;10985;54.182;7.890;2023-05-08T03:27:34;15.98;;;9.98;;
21647;SDS011;10985;54.182;7.890;2023-05-08T03:30:01;17.42;;;9.05;;
21647;SDS011;10985;54.182;7.890;2023-05-08T03:32:28;17.65;;;10.05;;
21647;SDS011;10985;54.182;7.890;2023-05-08T03:34:57;19.08;;;9.48;;
21647;SDS011;10985;54.182;7.890;2023-05-08T03:37:24;16.48;;;9.45;;
21647;SDS011;10985;54.182;7.890;2023-05-08T03:39:54;16.60;;;9.90;;
21647;SDS011;10985;54.182;7.890;2023-05-08T03:42:20;12.00;;;9.50;;
21647;SDS011;10985;54.182;7.890;2023-05-08T03:44:48;11.52;;;9.60;;
21647;SDS011;10985;54.182;7.890;2023-05-08T03:47:15;13.88;;;10.18;;
21647;SDS011;10985;54.182;7.890;2023-05-08T03:49:42;16.40;;;9.68;;
21647;SDS011;10985;54.182;7.890;2023-05-08T03:52:10;14.10;;;10.80;;
21647;SDS011;10985;54.182;7.890;2023-05-08T03:54:36;13.85;;;10.45;;
21647;SDS011;10985;54.182;7.890;2023-05-08T03:57:02;16.67;;;10.77;;
21647;SDS011;10985;54.182;7.890;2023-05-08T03:59:40;19.60;;;10.45;;
21647;SDS011;10985;54.182;7.890;2023-05-08T04:05:54;17.65;;;10.80;;
21647;SDS011;10985;54.182;7.890;2023-05-08T04:08:24;22.90;;;10.85;;
21647;SDS011;10985;54.182;7.890;2023-05-08T04:13:42;19.20;;;11.90;;
21647;SDS011;10985;54.182;7.890;2023-05-08T04:16:16;24.98;;;11.20;;
21647;SDS011;10985;54.182;7.890;2023-05-08T04:18:49;17.80;;;12.52;;
21647;SDS011;10985;54.182;7.890;2023-05-08T04:21:23;16.92;;;11.50;;
21647;SDS011;10985;54.182;7.890;2023-05-08T04:23:50;15.15;;;11.13;;
21647;SDS011;10985;54.182;7.890;2023-05-08T04:26:17;15.65;;;11.73;;
21647;SDS011;10985;54.182;7.890;2023-05-08T04:28:43;17.67;;;11.90;;
21647;SDS011;10985;54.182;7.890;2023-05-08T04:31:10;16.60;;;12.27;;
21647;SDS011;10985;54.182;7.890;2023-05-08T04:33:39;15.68;;;11.50;;
21647;SDS011;10985;54.182;7.890;2023-05-08T04:36:09;18.67;;;11.00;;
21647;SDS011;10985;54.182;7.890;2023-05-08T04:38:36;22.40;;;11.63;;
21647;SDS011;10985;54.182;7.890;2023-05-08T04:41:01;21.55;;;12.15;;
21647;SDS011;10985;54.182;7.890;2023-05-08T04:43:27;14.23;;;12.30;;
21647;SDS011;10985;54.182;7.890;2023-05-08T04:45:52;13.57;;;11.60;;
21647;SDS011;10985;54.182;7.890;2023-05-08T04:48:18;19.00;;;11.73;;
21647;SDS011;10985;54.182;7.890;2023-05-08T04:50:43;12.55;;;11.30;;
21647;SDS011;10985;54.182;7.890;2023-05-08T04:53:09;13.50;;;11.10;;
21647;SDS011;10985;54.182;7.890;2023-05-08T04:55:34;13.73;;;10.68;;
21647;SDS011;10985;54.182;7.890;2023-05-08T04:58:00;17.98;;;11.52;;
21647;SDS011;10985;54.182;7.890;2023-05-08T05:00:25;14.38;;;10.48;;
21647;SDS011;10985;54.182;7.890;2023-05-08T05:02:51;11.77;;;10.25;;
21647;SDS011;10985;54.182;7.890;2023-05-08T05:05:16;18.35;;;11.73;;
21647;SDS011;10985;54.182;7.890;2023-05-08T05:07:42;11.75;;;10.40;;
21647;SDS011;10985;54.182;7.890;2023-05-08T05:10:08;12.50;;;10.68;;
21647;SDS011;10985;54.182;7.890;2023-05-08T05:12:34;11.68;;;10.45;;
21647;SDS011;10985;54.182;7.890;2023-05-08T05:14:59;13.13;;;10.13;;
21647;SDS011;10985;54.182;7.890;2023-05-08T05:17:25;12.93;;;10.05;;
21647;SDS011;10985;54.182;7.890;2023-05-08T05:19:51;15.13;;;9.65;;
21647;SDS011;10985;54.182;7.890;2023-05-08T05:22:17;12.38;;;10.05;;
21647;SDS011;10985;54.182;7.890;2023-05-08T05:24:42;23.25;;;15.00;;
21647;SDS011;10985;54.182;7.890;2023-05-08T05:27:08;20.25;;;14.88;;
21647;SDS011;10985;54.182;7.890;2023-05-08T05:29:33;12.88;;;10.30;;
21647;SDS011;10985;54.182;7.890;2023-05-08T05:31:59;13.90;;;9.73;;
21647;SDS011;10985;54.182;7.890;2023-05-08T05:34:25;14.73;;;10.35;;
21647;SDS011;10985;54.182;7.890;2023-05-08T05:36:51;11.27;;;9.15;;
21647;SDS011;10985;54.182;7.890;2023-05-08T05:39:16;20.63;;;15.65;;
21647;SDS011;10985;54.182;7.890;2023-05-08T05:41:42;12.40;;;10.02;;
21647;SDS011;10985;54.182;7.890;2023-05-08T05:44:08;14.93;;;10.00;;
21647;SDS011;10985;54.182;7.890;2023-05-08T05:46:33;17.45;;;10.57;;
21647;SDS011;10985;54.182;7.890;2023-05-08T05:48:59;14.60;;;10.88;;
21647;SDS011;10985;54.182;7.890;2023-05-08T05:51:25;14.15;;;10.35;;
21647;SDS011;10985;54.182;7.890;2023-05-08T05:53:51;14.45;;;11.05;;
21647;SDS011;10985;54.182;7.890;2023-05-08T05:56:17;13.63;;;10.02;;
21647;SDS011;10985;54.182;7.890;2023-05-08T05:58:42;12.95;;;10.57;;
21647;SDS011;10985;54.182;7.890;2023-05-08T06:01:09;14.57;;;10.30;;
21647;SDS011;10985;54.182;7.890;2023-05-08T06:03:35;13.52;;;10.43;;
21647;SDS011;10985;54.182;7.890;2023-05-08T06:06:01;13.88;;;10.52;;
21647;SDS011;10985;54.182;7.890;2023-05-08T06:08:27;14.63;;;10.95;;
21647;SDS011;10985;54.182;7.890;2023-05-08T06:10:53;12.63;;;10.88;;
21647;SDS011;10985;54.182;7.890;2023-05-08T06:13:18;11.15;;;9.93;;
21647;SDS011;10985;54.182;7.890;2023-05-08T06:15:44;12.90;;;9.68;;
21647;SDS011;10985;54.182;7.890;2023-05-08T06:18:10;17.50;;;10.15;;
21647;SDS011;10985;54.182;7.890;2023-05-08T06:20:36;12.43;;;9.43;;
21647;SDS011;10985;54.182;7.890;2023-05-08T06:23:02;10.93;;;9.43;;
21647;SDS011;10985;54.182;7.890;2023-05-08T06:25:28;13.60;;;9.20;;
21647;SDS011;10985;54.182;7.890;2023-05-08T06:27:54;11.90;;;9.48;;
21647;SDS011;10985;54.182;7.890;2023-05-08T06:30:20;12.65;;;9.88;;
21647;SDS011;10985;54.182;7.890;2023-05-08T06:32:46;13.55;;;9.38;;
21647;SDS011;10985;54.182;7.890;2023-05-08T06:35:12;14.48;;;10.07;;
21647;SDS011;10985;54.182;7.890;2023-05-08T06:37:42;14.23;;;9.32;;
21647;SDS011;10985;54.182;7.890;2023-05-08T06:40:08;13.00;;;10.13;;
21647;SDS011;10985;54.182;7.890;2023-05-08T06:42:34;10.13;;;9.18;;
21647;SDS011;10985;54.182;7.890;2023-05-08T06:45:00;12.57;;;9.63;;
21647;SDS011;10985;54.182;7.890;2023-05-08T06:47:26;12.45;;;8.85;;
21647;SDS011;10985;54.182;7.890;2023-05-08T06:49:52;11.20;;;9.75;;
21647;SDS011;10985;54.182;7.890;2023-05-08T06:52:18;9.77;;;8.75;;
21647;SDS011;10985;54.182;7.890;2023-05-08T06:54:44;19.52;;;9.57;;
21647;SDS011;10985;54.182;7.890;2023-05-08T06:57:10;10.00;;;9.02;;
21647;SDS011;10985;54.182;7.890;2023-05-08T06:59:37;14.63;;;8.85;;
21647;SDS011;10985;54.182;7.890;2023-05-08T07:02:03;10.38;;;9.00;;
21647;SDS011;10985;54.182;7.890;2023-05-08T07:04:28;10.45;;;9.40;;
21647;SDS011;10985;54.182;7.890;2023-05-08T07:06:54;9.80;;;8.90;;
21647;SDS011;10985;54.182;7.890;2023-05-08T07:09:19;13.52;;;9.00;;
21647;SDS011;10985;54.182;7.890;2023-05-08T07:11:45;10.15;;;8.48;;
21647;SDS011;10985;54.182;7.890;2023-05-08T07:14:12;10.85;;;9.10;;
21647;SDS011;10985;54.182;7.890;2023-05-08T07:16:37;14.18;;;9.13;;
21647;SDS011;10985;54.182;7.890;2023-05-08T07:19:03;13.88;;;8.90;;
21647;SDS011;10985;54.182;7.890;2023-05-08T07:21:28;9.10;;;8.30;;
21647;SDS011;10985;54.182;7.890;2023-05-08T07:23:54;11.13;;;8.50;;
21647;SDS011;10985;54.182;7.890;2023-05-08T07:26:20;8.93;;;8.10;;
21647;SDS011;10985;54.182;7.890;2023-05-08T07:28:46;10.02;;;7.75;;
21647;SDS011;10985;54.182;7.890;2023-05-08T07:31:12;9.18;;;8.15;;
21647;SDS011;10985;54.182;7.890;2023-05-08T07:33:37;9.15;;;8.18;;
21647;SDS011;10985;54.182;7.890;2023-05-08T07:36:03;8.77;;;7.47;;
21647;SDS011;10985;54.182;7.890;2023-05-08T07:38:29;8.93;;;8.02;;
21647;SDS011;10985;54.182;7.890;2023-05-08T07:40:54;13.43;;;8.23;;
21647;SDS011;10985;54.182;7.890;2023-05-08T07:43:25;10.60;;;8.07;;
21647;SDS011;10985;54.182;7.890;2023-05-08T07:45:50;9.32;;;7.80;;
21647;SDS011;10985;54.182;7.890;2023-05-08T07:48:16;15.68;;;8.57;;
21647;SDS011;10985;54.182;7.890;2023-05-08T07:50:42;9.07;;;7.75;;
21647;SDS011;10985;54.182;7.890;2023-05-08T07:53:08;9.07;;;7.93;;
21647;SDS011;10985;54.182;7.890;2023-05-08T07:55:34;14.18;;;8.48;;
21647;SDS011;10985;54.182;7.890;2023-05-08T07:57:59;11.25;;;7.57;;
21647;SDS011;10985;54.182;7.890;2023-05-08T08:00:25;9.85;;;8.18;;
21647;SDS011;10985;54.182;7.890;2023-05-08T08:02:53;11.27;;;7.53;;
21647;SDS011;10985;54.182;7.890;2023-05-08T08:05:19;8.48;;;7.70;;
21647;SDS011;10985;54.182;7.890;2023-05-08T08:07:45;10.32;;;8.38;;
21647;SDS011;10985;54.182;7.890;2023-05-08T08:10:10;8.27;;;7.47;;
21647;SDS011;10985;54.182;7.890;2023-05-08T08:12:36;9.18;;;7.65;;
21647;SDS011;10985;54.182;7.890;2023-05-08T08:15:03;12.32;;;8.73;;
21647;SDS011;10985;54.182;7.890;2023-05-08T08:17:28;9.98;;;8.52;;
21647;SDS011;10985;54.182;7.890;2023-05-08T08:19:54;11.90;;;8.43;;
21647;SDS011;10985;54.182;7.890;2023-05-08T08:22:20;13.15;;;9.10;;
21647;SDS011;10985;54.182;7.890;2023-05-08T08:24:45;11.13;;;8.88;;
21647;SDS011;10985;54.182;7.890;2023-05-08T08:27:11;9.80;;;8.80;;
21647;SDS011;10985;54.182;7.890;2023-05-08T08:29:37;16.10;;;9.48;;
21647;SDS011;10985;54.182;7.890;2023-05-08T08:32:02;9.63;;;8.45;;
21647;SDS011;10985;54.182;7.890;2023-05-08T08:34:28;13.18;;;8.18;;
21647;SDS011;10985;54.182;7.890;2023-05-08T08:36:54;10.23;;;7.95;;
21647;SDS011;10985;54.182;7.890;2023-05-08T08:39:19;9.07;;;8.13;;
21647;SDS011;10985;54.182;7.890;2023-05-08T08:41:45;10.23;;;7.85;;
21647;SDS011;10985;54.182;7.890;2023-05-08T08:44:11;11.93;;;8.88;;
21647;SDS011;10985;54.182;7.890;2023-05-08T08:46:38;11.02;;;8.80;;
21647;SDS011;10985;54.182;7.890;2023-05-08T08:49:08;16.30;;;8.57;;
21647;SDS011;10985;54.182;7.890;2023-05-08T08:51:42;15.93;;;8.88;;
21647;SDS011;10985;54.182;7.890;2023-05-08T08:54:16;12.40;;;9.68;;
21647;SDS011;10985;54.182;7.890;2023-05-08T08:56:46;16.90;;;9.27;;
21647;SDS011;10985;54.182;7.890;2023-05-08T08:59:14;14.63;;;8.82;;
21647;SDS011;10985;54.182;7.890;2023-05-08T09:01:41;10.85;;;9.43;;
21647;SDS011;10985;54.182;7.890;2023-05-08T09:04:11;14.73;;;8.88;;
21647;SDS011;10985;54.182;7.890;2023-05-08T09:06:37;9.68;;;8.70;;
21647;SDS011;10985;54.182;7.890;2023-05-08T09:09:05;13.10;;;9.38;;
21647;SDS011;10985;54.182;7.890;2023-05-08T09:11:30;13.60;;;10.13;;
21647;SDS011;10985;54.182;7.890;2023-05-08T09:13:56;12.60;;;8.70;;
21647;SDS011;10985;54.182;7.890;2023-05-08T09:16:22;15.48;;;9.40;;
21647;SDS011;10985;54.182;7.890;2023-05-08T09:18:48;12.75;;;9.13;;
21647;SDS011;10985;54.182;7.890;2023-05-08T09:21:14;13.70;;;9.50;;
21647;SDS011;10985;54.182;7.890;2023-05-08T09:24:02;15.77;;;9.68;;
21647;SDS011;10985;54.182;7.890;2023-05-08T09:26:37;13.18;;;9.50;;
21647;SDS011;10985;54.182;7.890;2023-05-08T09:29:10;12.90;;;9.23;;
21647;SDS011;10985;54.182;7.890;2023-05-08T09:34:05;12.90;;;9.20;;
21647;SDS011;10985;54.182;7.890;2023-05-08T09:36:34;9.65;;;8.65;;
21647;SDS011;10985;54.182;7.890;2023-05-08T09:39:00;10.20;;;8.73;;
21647;SDS011;10985;54.182;7.890;2023-05-08T09:41:26;12.52;;;9.30;;
21647;SDS011;10985;54.182;7.890;2023-05-08T09:44:02;14.60;;;8.55;;
21647;SDS011;10985;54.182;7.890;2023-05-08T09:46:29;12.20;;;8.95;;
21647;SDS011;10985;54.182;7.890;2023-05-08T09:48:58;10.20;;;8.63;;
21647;SDS011;10985;54.182;7.890;2023-05-08T09:51:25;11.80;;;9.02;;
21647;SDS011;10985;54.182;7.890;2023-05-08T09:53:53;11.45;;;8.65;;
21647;SDS011;10985;54.182;7.890;2023-05-08T09:56:36;10.82;;;9.73;;
21647;SDS011;10985;54.182;7.890;2023-05-08T09:59:25;12.35;;;8.32;;
21647;SDS011;10985;54.182;7.890;2023-05-08T10:01:52;11.35;;;8.38;;
21647;SDS011;10985;54.182;7.890;2023-05-08T10:04:29;12.15;;;8.30;;
21647;SDS011;10985;54.182;7.890;2023-05-08T10:06:56;12.60;;;8.55;;
21647;SDS011;10985;54.182;7.890;2023-05-08T10:09:22;13.52;;;9.05;;
21647;SDS011;10985;54.182;7.890;2023-05-08T10:11:48;11.27;;;9.10;;
21647;SDS011;10985;54.182;7.890;2023-05-08T10:14:16;9.05;;;8.25;;
21647;SDS011;10985;54.182;7.890;2023-05-08T10:16:42;9.93;;;8.07;;
21647;SDS011;10985;54.182;7.890;2023-05-08T10:19:14;10.32;;;8.90;;
21647;SDS011;10985;54.182;7.890;2023-05-08T10:21:41;10.18;;;9.18;;
21647;SDS011;10985;54.182;7.890;2023-05-08T10:24:12;10.70;;;8.52;;
21647;SDS011;10985;54.182;7.890;2023-05-08T10:26:41;9.50;;;8.50;;
21647;SDS011;10985;54.182;7.890;2023-05-08T10:29:16;13.10;;;8.40;;
21647;SDS011;10985;54.182;7.890;2023-05-08T10:31:43;10.65;;;8.48;;
21647;SDS011;10985;54.182;7.890;2023-05-08T10:34:12;11.50;;;8.77;;
21647;SDS011;10985;54.182;7.890;2023-05-08T10:36:43;10.98;;;9.10;;
21647;SDS011;10985;54.182;7.890;2023-05-08T10:39:10;12.50;;;8.43;;
21647;SDS011;10985;54.182;7.890;2023-05-08T10:41:38;16.50;;;8.50;;
21647;SDS011;10985;54.182;7.890;2023-05-08T10:44:05;10.05;;;9.00;;
21647;SDS011;10985;54.182;7.890;2023-05-08T10:46:43;9.93;;;9.00;;
21647;SDS011;10985;54.182;7.890;2023-05-08T10:49:19;13.23;;;8.45;;
21647;SDS011;10985;54.182;7.890;2023-05-08T10:52:20;11.65;;;8.70;;
21647;SDS011;10985;54.182;7.890;2023-05-08T10:58:09;10.63;;;9.20;;
21647;SDS011;10985;54.182;7.890;2023-05-08T11:03:16;13.38;;;9.23;;
21647;SDS011;10985;54.182;7.890;2023-05-08T11:05:45;10.38;;;9.38;;
21647;SDS011;10985;54.182;7.890;2023-05-08T11:08:13;9.60;;;8.68;;
21647;SDS011;10985;54.182;7.890;2023-05-08T11:10:40;9.93;;;9.05;;
21647;SDS011;10985;54.182;7.890;2023-05-08T11:13:08;11.82;;;10.63;;
21647;SDS011;10985;54.182;7.890;2023-05-08T11:15:36;16.33;;;12.15;;
21647;SDS011;10985;54.182;7.890;2023-05-08T11:18:09;12.07;;;10.88;;
21647;SDS011;10985;54.182;7.890;2023-05-08T11:20:41;13.90;;;10.48;;
21647;SDS011;10985;54.182;7.890;2023-05-08T11:23:26;11.80;;;10.68;;
21647;SDS011;10985;54.182;7.890;2023-05-08T11:25:59;11.35;;;9.55;;
21647;SDS011;10985;54.182;7.890;2023-05-08T11:28:30;13.80;;;10.35;;
21647;SDS011;10985;54.182;7.890;2023-05-08T11:31:01;12.05;;;9.32;;
21647;SDS011;10985;54.182;7.890;2023-05-08T11:33:28;11.00;;;9.88;;
21647;SDS011;10985;54.182;7.890;2023-05-08T11:35:59;11.45;;;9.20;;
21647;SDS011;10985;54.182;7.890;2023-05-08T11:38:35;13.48;;;9.75;;
21647;SDS011;10985;54.182;7.890;2023-05-08T11:41:06;10.90;;;9.57;;
21647;SDS011;10985;54.182;7.890;2023-05-08T11:46:21;11.32;;;10.18;;
21647;SDS011;10985;54.182;7.890;2023-05-08T11:48:46;12.77;;;10.13;;
21647;SDS011;10985;54.182;7.890;2023-05-08T11:51:12;12.07;;;9.82;;
21647;SDS011;10985;54.182;7.890;2023-05-08T11:53:41;10.70;;;9.35;;
21647;SDS011;10985;54.182;7.890;2023-05-08T11:56:08;14.45;;;10.60;;
21647;SDS011;10985;54.182;7.890;2023-05-08T11:58:33;10.88;;;9.85;;
21647;SDS011;10985;54.182;7.890;2023-05-08T12:01:00;14.25;;;9.68;;
21647;SDS011;10985;54.182;7.890;2023-05-08T12:03:26;11.30;;;10.20;;
21647;SDS011;10985;54.182;7.890;2023-05-08T12:05:56;12.43;;;11.15;;
21647;SDS011;10985;54.182;7.890;2023-05-08T12:08:22;11.77;;;10.23;;
21647;SDS011;10985;54.182;7.890;2023-05-08T12:10:49;13.60;;;11.00;;
21647;SDS011;10985;54.182;7.890;2023-05-08T12:13:22;11.43;;;10.23;;
21647;SDS011;10985;54.182;7.890;2023-05-08T12:15:50;12.18;;;9.23;;
21647;SDS011;10985;54.182;7.890;2023-05-08T12:18:20;11.30;;;10.10;;
21647;SDS011;10985;54.182;7.890;2023-05-08T12:20:55;13.02;;;10.45;;
21647;SDS011;10985;54.182;7.890;2023-05-08T12:23:23;10.88;;;9.77;;
21647;SDS011;10985;54.182;7.890;2023-05-08T12:25:50;10.77;;;9.80;;
21647;SDS011;10985;54.182;7.890;2023-05-08T12:28:19;11.80;;;9.35;;
21647;SDS011;10985;54.182;7.890;2023-05-08T12:30:45;11.05;;;9.90;;
21647;SDS011;10985;54.182;7.890;2023-05-08T12:33:10;12.68;;;9.38;;
21647;SDS011;10985;54.182;7.890;2023-05-08T12:35:38;15.98;;;9.95;;
21647;SDS011;10985;54.182;7.890;2023-05-08T12:38:05;12.77;;;9.20;;
21647;SDS011;10985;54.182;7.890;2023-05-08T12:40:33;11.13;;;9.32;;
21647;SDS011;10985;54.182;7.890;2023-05-08T12:43:01;9.60;;;8.63;;
21647;SDS011;10985;54.182;7.890;2023-05-08T12:45:28;12.10;;;10.52;;
21647;SDS011;10985;54.182;7.890;2023-05-08T12:47:57;13.88;;;9.95;;
21647;SDS011;10985;54.182;7.890;2023-05-08T12:50:25;10.95;;;9.90;;
21647;SDS011;10985;54.182;7.890;2023-05-08T12:52:51;10.50;;;9.65;;
21647;SDS011;10985;54.182;7.890;2023-05-08T12:58:06;13.57;;;10.40;;
21647;SDS011;10985;54.182;7.890;2023-05-08T13:03:29;13.77;;;10.10;;
21647;SDS011;10985;54.182;7.890;2023-05-08T13:05:55;12.40;;;9.65;;
21647;SDS011;10985;54.182;7.890;2023-05-08T13:08:29;10.70;;;9.65;;
21647;SDS011;10985;54.182;7.890;2023-05-08T13:10:56;11.25;;;10.23;;
21647;SDS011;10985;54.182;7.890;2023-05-08T13:13:23;14.80;;;10.05;;
21647;SDS011;10985;54.182;7.890;2023-05-08T13:15:54;16.10;;;10.60;;
21647;SDS011;10985;54.182;7.890;2023-05-08T13:18:20;12.88;;;10.70;;
21647;SDS011;10985;54.182;7.890;2023-05-08T13:20:49;13.27;;;10.18;;
21647;SDS011;10985;54.182;7.890;2023-05-08T13:23:15;11.13;;;9.93;;
21647;SDS011;10985;54.182;7.890;2023-05-08T13:25:40;12.40;;;9.63;;
21647;SDS011;10985;54.182;7.890;2023-05-08T13:28:06;12.40;;;10.43;;
21647;SDS011;10985;54.182;7.890;2023-05-08T13:30:33;13.20;;;11.25;;
21647;SDS011;10985;54.182;7.890;2023-05-08T13:33:00;14.05;;;10.80;;
21647;SDS011;10985;54.182;7.890;2023-05-08T13:35:26;13.50;;;10.88;;
21647;SDS011;10985;54.182;7.890;2023-05-08T13:37:52;16.15;;;10.93;;
21647;SDS011;10985;54.182;7.890;2023-05-08T13:40:19;12.35;;;10.93;;
21647;SDS011;10985;54.182;7.890;2023-05-08T13:42:44;12.13;;;10.63;;
21647;SDS011;10985;54.182;7.890;2023-05-08T13:45:10;13.70;;;12.30;;
21647;SDS011;10985;54.182;7.890;2023-05-08T13:47:38;12.90;;;11.25;;
21647;SDS011;10985;54.182;7.890;2023-05-08T13:50:05;15.48;;;11.10;;
21647;SDS011;10985;54.182;7.890;2023-05-08T13:52:31;13.07;;;11.68;;
21647;SDS011;10985;54.182;7.890;2023-05-08T13:54:56;13.25;;;11.88;;
21647;SDS011;10985;54.182;7.890;2023-05-08T13:57:22;13.68;;;12.10;;
21647;SDS011;10985;54.182;7.890;2023-05-08T13:59:48;17.90;;;12.20;;
21647;SDS011;10985;54.182;7.890;2023-05-08T14:02:14;15.77;;;11.43;;
21647;SDS011;10985;54.182;7.890;2023-05-08T14:04:39;20.08;;;11.38;;
21647;SDS011;10985;54.182;7.890;2023-05-08T14:07:05;15.40;;;11.75;;
21647;SDS011;10985;54.182;7.890;2023-05-08T14:09:31;12.68;;;11.32;;
21647;SDS011;10985;54.182;7.890;2023-05-08T14:11:57;13.90;;;11.68;;
21647;SDS011;10985;54.182;7.890;2023-05-08T14:14:22;16.05;;;11.75;;
21647;SDS011;10985;54.182;7.890;2023-05-08T14:16:48;11.80;;;10.45;;
21647;SDS011;10985;54.182;7.890;2023-05-08T14:19:14;14.18;;;11.35;;
21647;SDS011;10985;54.182;7.890;2023-05-08T14:21:40;12.75;;;11.27;;
21647;SDS011;10985;54.182;7.890;2023-05-08T14:24:06;19.75;;;12.68;;
21647;SDS011;10985;54.182;7.890;2023-05-08T14:26:32;16.27;;;12.30;;
21647;SDS011;10985;54.182;7.890;2023-05-08T14:28:58;13.52;;;11.45;;
21647;SDS011;10985;54.182;7.890;2023-05-08T14:31:23;14.88;;;12.55;;
21647;SDS011;10985;54.182;7.890;2023-05-08T14:33:49;17.77;;;13.18;;
21647;SDS011;10985;54.182;7.890;2023-05-08T14:36:15;16.30;;;11.70;;
21647;SDS011;10985;54.182;7.890;2023-05-08T14:38:40;16.77;;;12.20;;
21647;SDS011;10985;54.182;7.890;2023-05-08T14:41:06;16.98;;;10.75;;
21647;SDS011;10985;54.182;7.890;2023-05-08T14:43:31;21.45;;;13.82;;
21647;SDS011;10985;54.182;7.890;2023-05-08T14:45:57;16.25;;;12.25;;
21647;SDS011;10985;54.182;7.890;2023-05-08T14:48:22;17.05;;;11.23;;
21647;SDS011;10985;54.182;7.890;2023-05-08T14:50:48;15.00;;;10.93;;
21647;SDS011;10985;54.182;7.890;2023-05-08T14:53:13;15.18;;;13.55;;
21647;SDS011;10985;54.182;7.890;2023-05-08T14:55:39;17.10;;;13.35;;
21647;SDS011;10985;54.182;7.890;2023-05-08T14:58:04;14.00;;;12.57;;
21647;SDS011;10985;54.182;7.890;2023-05-08T15:00:30;17.08;;;13.50;;
21647;SDS011;10985;54.182;7.890;2023-05-08T15:02:55;15.02;;;13.52;;
21647;SDS011;10985;54.182;7.890;2023-05-08T15:05:21;16.00;;;13.60;;
21647;SDS011;10985;54.182;7.890;2023-05-08T15:07:46;15.77;;;13.27;;
21647;SDS011;10985;54.182;7.890;2023-05-08T15:10:14;14.48;;;13.00;;
21647;SDS011;10985;54.182;7.890;2023-05-08T15:12:39;15.88;;;13.45;;
21647;SDS011;10985;54.182;7.890;2023-05-08T15:15:05;18.75;;;13.32;;
21647;SDS011;10985;54.182;7.890;2023-05-08T15:17:30;19.08;;;13.50;;